sim
Sign-in with your pilot id or email,
or register
Callsign
Passwort

Schedule Details

Flight Number: OEO3523
Departure: Riga International Airport (EVRA) at 03:25
Arrival: Munich Airport (EDDM) at 05:45

Weather Information
Getting current METAR information for EVRA 280950Z 11004KT 050V130 5000 -RA BR SCT005 BKN011 OVC014 14/13 Q1015 NOSIG
Getting current METAR information for EDDM 280950Z 24004KT 220V290 9999 -RA FEW007 BKN045 08/06 Q1011 NOSIG

Schedule Frequency

Route Map